Time;durP1;ratioP1;P1;durP2;ratioP2;P2;SDS_P1;SDS_P2;PMS_P1;PMS_P2;Temp;Humidity;BMP_temperature;BMP_pressure;BME280_temperature;BME280_humidity;BME280_pressure;Samples;Min_cycle;Max_cycle;Signal;HPM_P1;HPM_P2
2023/07/11 00:01:25;;;;;;;8.55;7.63;;;19.00;99.90;;;;;;5030371;28;20033;-56
2023/07/11 00:03:51;;;;;;;9.95;7.75;;;18.90;99.90;;;;;;5024110;28;20726;-57
2023/07/11 00:06:19;;;;;;;8.40;7.60;;;18.80;99.90;;;;;;5024984;28;20671;-57
2023/07/11 00:08:44;;;;;;;8.57;7.85;;;18.70;99.90;;;;;;5031781;28;20030;-57
2023/07/11 00:11:11;;;;;;;8.77;7.88;;;18.70;99.90;;;;;;5015869;28;20021;-56
2023/07/11 00:13:40;;;;;;;7.95;7.25;;;18.60;99.90;;;;;;5037895;28;20021;-56
2023/07/11 00:16:09;;;;;;;8.07;7.47;;;18.70;99.90;;;;;;5022297;28;20033;-56
2023/07/11 00:18:35;;;;;;;8.45;7.75;;;18.70;99.90;;;;;;5027814;28;20515;-56
2023/07/11 00:21:02;;;;;;;9.98;7.50;;;18.70;99.90;;;;;;5029991;28;20018;-57
2023/07/11 00:23:27;;;;;;;7.90;6.78;;;18.70;99.90;;;;;;5016460;28;20423;-57
2023/07/11 00:25:53;;;;;;;7.28;6.68;;;18.60;99.90;;;;;;5034046;28;20053;-57
2023/07/11 00:28:19;;;;;;;7.80;7.10;;;18.60;99.90;;;;;;5017387;28;20416;-57
2023/07/11 00:30:46;;;;;;;7.57;6.88;;;18.70;99.90;;;;;;5016998;28;20025;-56
2023/07/11 00:33:12;;;;;;;7.38;6.78;;;18.70;99.90;;;;;;5027115;28;20029;-57
2023/07/11 00:35:38;;;;;;;10.18;7.95;;;18.70;99.90;;;;;;5032671;28;20026;-57
2023/07/11 00:38:04;;;;;;;8.70;8.00;;;18.70;99.90;;;;;;5017862;28;20030;-56
2023/07/11 00:40:30;;;;;;;8.02;7.35;;;18.70;99.90;;;;;;5038245;28;20052;-57
2023/07/11 00:43:00;;;;;;;9.60;7.47;;;18.70;99.90;;;;;;5023942;28;20084;-57
2023/07/11 00:45:57;;;;;;;8.98;8.13;;;18.70;99.90;;;;;;5031415;28;20080;-56
2023/07/11 00:48:23;;;;;;;9.38;7.65;;;18.60;99.90;;;;;;5032108;28;20030;-56
2023/07/11 00:50:50;;;;;;;8.65;7.80;;;18.50;99.90;;;;;;5025370;28;20017;-56
2023/07/11 00:53:17;;;;;;;7.75;7.10;;;18.40;99.90;;;;;;5038752;28;20033;-56
2023/07/11 00:55:43;;;;;;;8.52;7.63;;;18.30;99.90;;;;;;5021827;28;20041;-55
2023/07/11 00:58:09;;;;;;;8.95;8.15;;;18.10;99.90;;;;;;5036395;28;20028;-56
2023/07/11 01:00:35;;;;;;;8.52;7.82;;;18.00;99.90;;;;;;5034636;28;20778;-55
2023/07/11 01:03:00;;;;;;;10.23;8.60;;;17.90;99.90;;;;;;5022504;28;20029;-56
2023/07/11 01:05:26;;;;;;;9.00;8.15;;;17.90;99.90;;;;;;5039669;28;20469;-55
2023/07/11 01:07:52;;;;;;;9.10;8.25;;;17.80;99.90;;;;;;5018533;28;20096;-56
2023/07/11 01:10:17;;;;;;;7.72;7.13;;;17.80;99.90;;;;;;5036334;28;20025;-57
2023/07/11 01:12:47;;;;;;;9.02;8.13;;;17.80;99.90;;;;;;5025973;28;20028;-56
2023/07/11 01:15:14;;;;;;;8.77;8.15;;;17.70;99.90;;;;;;5025380;28;20070;-56
2023/07/11 01:17:40;;;;;;;9.00;8.20;;;17.60;99.90;;;;;;5035209;28;20645;-56
2023/07/11 01:20:08;;;;;;;8.68;7.85;;;17.40;99.90;;;;;;5020010;28;20083;-57
2023/07/11 01:22:37;;;;;;;9.80;8.73;;;17.40;99.90;;;;;;5051341;28;20135;-56
2023/07/11 01:25:12;;;;;;;8.63;7.93;;;17.30;99.90;;;;;;5022424;28;20029;-56
2023/07/11 01:27:41;;;;;;;9.52;8.63;;;17.30;99.90;;;;;;5031641;28;20075;-57
2023/07/11 01:30:09;;;;;;;9.13;8.32;;;17.30;99.90;;;;;;5029515;28;20107;-55
2023/07/11 01:32:35;;;;;;;9.25;8.38;;;17.40;99.90;;;;;;5021356;28;20033;-56
2023/07/11 01:35:01;;;;;;;9.07;8.38;;;17.30;99.90;;;;;;5036329;28;20017;-55
2023/07/11 01:37:26;;;;;;;9.35;8.55;;;17.30;99.90;;;;;;5021009;28;20022;-57
2023/07/11 01:39:52;;;;;;;9.10;8.27;;;17.30;99.90;;;;;;5030329;28;20037;-58
2023/07/11 01:42:18;;;;;;;9.45;8.60;;;17.20;99.90;;;;;;5029505;28;20060;-57
2023/07/11 01:44:43;;;;;;;9.77;8.98;;;17.20;99.90;;;;;;5023963;28;20022;-56
2023/07/11 01:47:09;;;;;;;9.65;8.90;;;17.20;99.90;;;;;;5036300;28;20465;-57
2023/07/11 01:49:35;;;;;;;10.68;9.88;;;17.20;99.90;;;;;;5016898;28;20442;-57
2023/07/11 01:52:13;;;;;;;10.88;9.90;;;17.20;99.90;;;;;;5033207;28;20052;-55
2023/07/11 01:54:39;;;;;;;9.60;8.90;;;17.20;99.90;;;;;;5025985;28;20026;-56
2023/07/11 01:57:07;;;;;;;9.93;9.10;;;17.20;99.90;;;;;;5025833;28;20397;-56
2023/07/11 01:59:33;;;;;;;9.30;8.60;;;17.20;99.90;;;;;;5033878;28;20032;-54
2023/07/11 02:01:59;;;;;;;9.45;8.65;;;17.20;99.90;;;;;;5017258;28;20022;-56
2023/07/11 02:04:25;;;;;;;9.10;8.35;;;17.20;99.90;;;;;;5021460;28;20596;-55
2023/07/11 02:06:51;;;;;;;9.98;9.18;;;17.20;99.90;;;;;;5031144;28;20640;-56
2023/07/11 02:09:19;;;;;;;9.35;8.65;;;17.20;99.90;;;;;;5033370;28;20045;-55
2023/07/11 02:11:45;;;;;;;9.82;8.93;;;17.20;99.90;;;;;;5022161;28;20030;-56
2023/07/11 02:14:18;;;;;;;9.90;9.00;;;17.10;99.90;;;;;;5034668;28;20074;-57
2023/07/11 02:16:44;;;;;;;12.63;9.20;;;17.10;99.90;;;;;;5017570;28;20037;-56
2023/07/11 02:19:11;;;;;;;10.05;8.75;;;17.00;99.90;;;;;;5017097;28;20030;-56
2023/07/11 02:21:38;;;;;;;10.15;9.20;;;16.90;99.90;;;;;;5026732;28;20037;-56
2023/07/11 02:24:04;;;;;;;9.25;8.55;;;16.90;99.90;;;;;;5031454;28;20424;-56
2023/07/11 02:26:30;;;;;;;10.27;9.38;;;16.80;99.90;;;;;;5023294;28;20013;-57
2023/07/11 02:28:56;;;;;;;10.57;9.68;;;16.80;99.90;;;;;;5041907;28;20036;-56
2023/07/11 02:31:21;;;;;;;10.52;9.18;;;16.70;99.90;;;;;;5018311;28;20394;-56
2023/07/11 02:33:48;;;;;;;10.55;9.60;;;16.70;99.90;;;;;;5029533;28;20063;-56
2023/07/11 02:36:14;;;;;;;9.77;8.98;;;16.60;99.90;;;;;;5027142;28;20022;-56
2023/07/11 02:38:40;;;;;;;9.38;8.43;;;16.60;99.90;;;;;;5019197;28;20032;-56
2023/07/11 02:41:05;;;;;;;10.32;9.43;;;16.50;99.90;;;;;;5035812;28;20021;-56
2023/07/11 02:43:31;;;;;;;9.43;8.52;;;16.50;99.90;;;;;;5017180;28;20068;-56
2023/07/11 02:45:57;;;;;;;10.80;9.70;;;16.50;99.90;;;;;;5029735;28;20048;-56
2023/07/11 02:48:25;;;;;;;9.23;8.32;;;16.50;99.90;;;;;;5041717;28;20114;-56
2023/07/11 02:50:51;;;;;;;9.95;9.05;;;16.50;99.90;;;;;;5021166;28;20022;-56
2023/07/11 02:53:17;;;;;;;9.90;8.90;;;16.50;99.90;;;;;;5035227;28;20053;-56
2023/07/11 02:55:43;;;;;;;9.77;8.88;;;16.60;99.90;;;;;;5014644;28;20044;-56
2023/07/11 02:58:09;;;;;;;9.43;8.73;;;16.60;99.90;;;;;;5032766;28;20028;-57
2023/07/11 03:00:35;;;;;;;11.02;10.02;;;16.60;99.90;;;;;;5025700;28;20061;-56
2023/07/11 03:03:01;;;;;;;10.63;9.73;;;16.70;99.90;;;;;;5028849;28;20090;-56
2023/07/11 03:05:27;;;;;;;10.85;10.05;;;16.70;99.90;;;;;;5033960;28;20116;-56
2023/07/11 03:07:52;;;;;;;11.70;10.70;;;16.70;99.90;;;;;;5019547;28;20046;-55
2023/07/11 03:10:18;;;;;;;11.50;10.50;;;16.70;99.90;;;;;;5034396;28;20028;-56
2023/07/11 03:12:44;;;;;;;10.57;9.52;;;16.60;99.90;;;;;;5024820;28;20022;-56
2023/07/11 03:15:09;;;;;;;10.48;9.60;;;16.60;99.90;;;;;;5027197;28;20090;-56
2023/07/11 03:17:35;;;;;;;10.50;9.57;;;16.50;99.90;;;;;;5030624;28;20020;-56
2023/07/11 03:20:01;;;;;;;10.85;9.85;;;16.50;99.90;;;;;;5016960;28;20029;-56
2023/07/11 03:22:27;;;;;;;12.63;9.80;;;16.40;99.90;;;;;;5035727;28;20104;-56
2023/07/11 03:24:53;;;;;;;10.65;9.75;;;16.30;99.90;;;;;;5025648;28;20045;-57
2023/07/11 03:27:19;;;;;;;11.35;10.45;;;16.30;99.90;;;;;;5024035;28;20437;-56
2023/07/11 03:29:45;;;;;;;11.25;10.13;;;16.30;99.90;;;;;;5032403;28;20029;-56
2023/07/11 03:32:10;;;;;;;10.95;10.07;;;16.30;99.90;;;;;;5015262;28;20113;-56
2023/07/11 03:34:37;;;;;;;11.15;10.15;;;16.20;99.90;;;;;;5036964;28;20025;-56
2023/07/11 03:37:03;;;;;;;9.85;9.05;;;16.20;99.90;;;;;;5015814;28;20053;-56
2023/07/11 03:39:28;;;;;;;9.25;8.50;;;16.10;99.90;;;;;;5025734;28;20076;-56
2023/07/11 03:41:54;;;;;;;9.23;8.52;;;16.10;99.90;;;;;;5028944;28;20049;-57
2023/07/11 03:44:20;;;;;;;9.00;8.30;;;16.00;99.90;;;;;;5014903;28;20348;-57
2023/07/11 03:46:45;;;;;;;9.40;8.48;;;16.00;99.90;;;;;;5039489;28;20079;-57
2023/07/11 03:49:11;;;;;;;10.07;9.27;;;16.00;99.90;;;;;;5019918;28;20119;-57
2023/07/11 03:51:37;;;;;;;10.70;9.68;;;16.00;99.90;;;;;;5028507;28;20025;-56
2023/07/11 03:54:03;;;;;;;10.82;9.32;;;16.00;99.90;;;;;;5030224;28;20029;-57
2023/07/11 03:56:28;;;;;;;10.48;9.57;;;16.00;99.90;;;;;;5015399;28;20079;-56
2023/07/11 03:58:54;;;;;;;9.93;9.02;;;16.10;99.90;;;;;;5034094;28;20037;-56
2023/07/11 04:01:20;;;;;;;10.30;9.40;;;16.10;99.90;;;;;;5019411;28;20052;-56
2023/07/11 04:03:47;;;;;;;10.15;9.35;;;16.10;99.90;;;;;;5031429;28;20120;-56
2023/07/11 04:06:13;;;;;;;10.68;9.85;;;16.10;99.90;;;;;;5029819;28;20046;-56
2023/07/11 04:08:38;;;;;;;12.05;10.98;;;16.10;99.90;;;;;;5016534;28;20116;-56
2023/07/11 04:11:04;;;;;;;11.38;10.35;;;16.10;99.90;;;;;;5017647;28;20100;-56
2023/07/11 04:13:30;;;;;;;10.75;9.75;;;16.10;99.90;;;;;;5018370;28;20108;-56
2023/07/11 04:15:55;;;;;;;13.68;11.00;;;16.10;99.90;;;;;;5016601;28;20033;-56
2023/07/11 04:18:21;;;;;;;13.10;11.90;;;16.20;99.90;;;;;;5014516;28;20026;-57
2023/07/11 04:20:47;;;;;;;12.25;11.05;;;16.20;99.90;;;;;;5016133;28;20030;-57
2023/07/11 04:23:16;;;;;;;13.20;12.10;;;16.20;99.90;;;;;;5017331;28;20092;-57
2023/07/11 04:25:42;;;;;;;13.27;12.05;;;16.30;99.90;;;;;;5015363;28;20046;-59
2023/07/11 04:28:07;;;;;;;12.98;11.95;;;16.30;99.90;;;;;;5030622;28;20033;-57
2023/07/11 04:30:33;;;;;;;13.50;12.20;;;16.30;99.90;;;;;;5027782;28;20045;-55
2023/07/11 04:32:59;;;;;;;15.35;11.45;;;16.30;99.90;;;;;;5023734;28;20075;-55
2023/07/11 04:35:25;;;;;;;12.18;11.18;;;16.30;99.90;;;;;;5034564;28;20353;-56
2023/07/11 04:37:50;;;;;;;12.95;11.77;;;16.40;99.90;;;;;;5017568;28;20529;-55
2023/07/11 04:40:17;;;;;;;14.32;13.15;;;16.40;99.90;;;;;;5035230;28;20040;-56
2023/07/11 04:42:42;;;;;;;14.13;12.82;;;16.40;99.90;;;;;;5026359;28;20105;-55
2023/07/11 04:45:09;;;;;;;14.48;13.27;;;16.50;99.90;;;;;;5023603;28;20104;-56
2023/07/11 04:47:35;;;;;;;15.02;13.55;;;16.50;99.90;;;;;;5033493;28;20056;-56
2023/07/11 04:50:01;;;;;;;14.00;12.82;;;16.60;99.90;;;;;;5019411;28;20034;-55
2023/07/11 04:52:26;;;;;;;17.70;13.93;;;16.70;99.90;;;;;;5037757;28;20036;-56
2023/07/11 04:54:52;;;;;;;13.95;12.55;;;16.70;99.90;;;;;;5025319;28;20440;-56
2023/07/11 04:57:18;;;;;;;15.02;13.52;;;16.80;99.90;;;;;;5024906;28;20271;-56
2023/07/11 04:59:44;;;;;;;14.30;13.13;;;16.90;99.90;;;;;;5035133;28;20032;-56
2023/07/11 05:02:10;;;;;;;13.82;12.52;;;16.90;99.90;;;;;;5017927;28;20026;-56
2023/07/11 05:04:38;;;;;;;15.52;14.13;;;17.00;99.90;;;;;;5038101;28;20028;-56
2023/07/11 05:07:04;;;;;;;15.27;13.77;;;17.10;99.90;;;;;;5024396;28;20024;-57
2023/07/11 05:09:29;;;;;;;14.57;13.25;;;17.20;99.90;;;;;;5020315;28;20026;-57
2023/07/11 05:11:55;;;;;;;14.32;13.15;;;17.30;99.90;;;;;;5023433;28;20017;-56
2023/07/11 05:14:22;;;;;;;14.52;13.43;;;17.30;99.90;;;;;;5038087;28;20029;-56
2023/07/11 05:16:47;;;;;;;14.43;13.13;;;17.40;99.90;;;;;;5017727;28;20057;-56
2023/07/11 05:19:13;;;;;;;14.60;13.30;;;17.50;99.90;;;;;;5030580;28;20119;-56
2023/07/11 05:21:39;;;;;;;14.68;13.38;;;17.60;99.90;;;;;;5026154;28;20017;-56
2023/07/11 05:24:05;;;;;;;14.80;13.57;;;17.70;99.90;;;;;;5025068;28;20026;-56
2023/07/11 05:26:31;;;;;;;14.05;12.90;;;17.80;99.90;;;;;;5038995;28;20492;-56
2023/07/11 05:28:57;;;;;;;13.55;12.35;;;17.90;99.90;;;;;;5023149;28;20038;-56
2023/07/11 05:31:22;;;;;;;14.05;12.77;;;18.00;99.90;;;;;;5037826;28;20385;-56
2023/07/11 05:33:50;;;;;;;13.88;12.77;;;18.00;99.90;;;;;;5027493;28;20095;-56
2023/07/11 05:36:33;;;;;;;14.00;12.70;;;18.20;99.90;;;;;;5027544;28;20392;-56
2023/07/11 05:39:13;;;;;;;13.27;11.90;;;18.30;99.90;;;;;;5033099;28;20018;-57
2023/07/11 05:41:44;;;;;;;14.43;13.27;;;18.40;99.90;;;;;;5023449;28;20033;-55
2023/07/11 05:44:11;;;;;;;13.23;12.02;;;18.50;99.90;;;;;;5039847;28;20052;-57
2023/07/11 05:46:37;;;;;;;13.07;11.88;;;18.60;99.90;;;;;;5019273;28;20022;-57
2023/07/11 05:49:04;;;;;;;12.90;11.80;;;18.70;99.90;;;;;;5032604;28;20030;-56
2023/07/11 05:51:30;;;;;;;12.85;11.68;;;18.80;99.90;;;;;;5029343;28;20037;-56
2023/07/11 05:53:56;;;;;;;12.82;11.73;;;18.90;99.90;;;;;;5023271;28;20041;-57
2023/07/11 05:56:21;;;;;;;11.80;10.90;;;19.00;99.90;;;;;;5039929;28;20025;-56
2023/07/11 05:58:49;;;;;;;10.80;9.88;;;19.10;99.90;;;;;;5021840;28;20401;-56
2023/07/11 06:01:25;;;;;;;10.18;9.30;;;19.10;99.90;;;;;;5035681;28;20029;-57
2023/07/11 06:04:01;;;;;;;9.65;8.85;;;19.30;99.90;;;;;;5025761;28;20022;-56
2023/07/11 06:06:26;;;;;;;11.13;10.18;;;19.40;99.90;;;;;;5029078;28;20505;-57
2023/07/11 06:08:52;;;;;;;13.88;9.82;;;19.50;99.90;;;;;;5031690;28;20033;-57
2023/07/11 06:11:17;;;;;;;11.07;10.07;;;19.60;99.90;;;;;;5020348;28;20051;-57
2023/07/11 06:13:43;;;;;;;11.23;10.10;;;19.70;99.90;;;;;;5035186;28;20070;-57
2023/07/11 06:16:18;;;;;;;10.65;9.85;;;19.80;99.90;;;;;;5020633;28;20021;-57
2023/07/11 06:18:47;;;;;;;11.70;9.57;;;19.90;99.90;;;;;;5033486;28;20112;-56
2023/07/11 06:21:13;;;;;;;10.68;9.20;;;20.00;99.90;;;;;;5030017;28;20106;-57
2023/07/11 06:23:39;;;;;;;13.25;10.10;;;20.20;99.90;;;;;;5021223;28;20492;-56
2023/07/11 06:26:05;;;;;;;10.05;9.25;;;20.30;99.90;;;;;;5038826;28;20463;-56
2023/07/11 06:28:31;;;;;;;10.32;9.32;;;20.30;99.90;;;;;;5018739;28;20033;-57
2023/07/11 06:30:58;;;;;;;10.25;9.07;;;20.50;99.90;;;;;;5034149;28;20029;-57
2023/07/11 06:33:25;;;;;;;10.07;9.27;;;20.60;99.90;;;;;;5023418;28;20098;-57
2023/07/11 06:35:51;;;;;;;12.30;11.20;;;20.70;99.90;;;;;;5020942;28;20485;-57
2023/07/11 06:38:18;;;;;;;9.95;9.23;;;20.80;99.90;;;;;;5037908;28;20041;-57
2023/07/11 06:40:48;;;;;;;10.88;10.02;;;20.90;99.90;;;;;;5017543;28;20029;-57
2023/07/11 06:43:14;;;;;;;11.98;9.95;;;21.00;99.90;;;;;;5036399;28;20117;-56
2023/07/11 06:45:40;;;;;;;11.38;10.30;;;21.20;99.90;;;;;;5026328;28;20121;-57
2023/07/11 06:48:05;;;;;;;11.88;9.13;;;21.30;99.90;;;;;;5023400;28;20021;-56
2023/07/11 06:50:32;;;;;;;10.63;9.35;;;21.40;99.90;;;;;;5034368;28;20922;-57
2023/07/11 06:52:57;;;;;;;14.35;9.50;;;21.60;99.90;;;;;;5017437;28;20245;-57
2023/07/11 06:55:23;;;;;;;10.80;9.90;;;21.70;99.90;;;;;;5033525;28;20033;-55
2023/07/11 06:57:49;;;;;;;10.55;9.65;;;21.80;99.90;;;;;;5023242;28;20042;-55
2023/07/11 07:00:15;;;;;;;12.27;10.05;;;22.00;99.90;;;;;;5027128;28;20033;-55
2023/07/11 07:02:40;;;;;;;10.43;9.63;;;22.20;99.90;;;;;;5030643;28;20034;-57
2023/07/11 07:05:06;;;;;;;10.68;9.50;;;22.40;99.90;;;;;;5021096;28;20025;-55
2023/07/11 07:07:32;;;;;;;11.88;10.13;;;22.60;99.90;;;;;;5037051;28;20558;-57
2023/07/11 07:10:00;;;;;;;10.32;9.52;;;22.80;99.90;;;;;;5018542;28;20390;-56
2023/07/11 07:12:25;;;;;;;10.50;9.63;;;22.90;99.90;;;;;;5023408;28;20025;-56
2023/07/11 07:14:51;;;;;;;10.95;10.15;;;23.10;99.90;;;;;;5031506;28;20033;-55
2023/07/11 07:17:16;;;;;;;10.18;9.27;;;23.20;99.90;;;;;;5016660;28;20398;-55
2023/07/11 07:19:43;;;;;;;10.55;9.40;;;23.40;99.90;;;;;;5037190;28;20124;-55
2023/07/11 07:22:09;;;;;;;10.15;9.05;;;23.50;99.90;;;;;;5023626;28;20030;-56
2023/07/11 07:24:34;;;;;;;10.50;9.60;;;23.60;99.90;;;;;;5027127;28;20098;-57
2023/07/11 07:27:00;;;;;;;9.77;9.07;;;23.80;99.90;;;;;;5030178;28;20711;-57
2023/07/11 07:29:26;;;;;;;11.43;9.70;;;23.90;99.90;;;;;;5018803;28;20390;-58
2023/07/11 07:31:51;;;;;;;10.20;9.25;;;24.10;99.90;;;;;;5035100;28;20033;-56
2023/07/11 07:34:17;;;;;;;10.07;9.27;;;24.10;99.90;;;;;;5022045;28;20060;-55
2023/07/11 07:36:42;;;;;;;9.60;8.90;;;24.30;99.90;;;;;;5029685;28;20053;-56
2023/07/11 07:39:08;;;;;;;10.32;9.35;;;24.30;99.90;;;;;;5028288;28;20095;-57
2023/07/11 07:41:33;;;;;;;10.38;9.57;;;24.40;99.90;;;;;;5020198;28;20022;-57
2023/07/11 07:43:59;;;;;;;10.25;8.90;;;24.50;99.90;;;;;;5033484;28;20021;-55
2023/07/11 07:46:25;;;;;;;9.93;9.10;;;24.60;99.90;;;;;;5019500;28;20041;-56
2023/07/11 07:48:51;;;;;;;9.43;8.52;;;24.80;99.90;;;;;;5029491;28;20497;-57
2023/07/11 07:51:18;;;;;;;9.27;8.57;;;24.90;99.90;;;;;;5023568;28;20124;-56
2023/07/11 07:53:44;;;;;;;9.80;8.90;;;25.10;99.90;;;;;;5022543;28;20056;-57
2023/07/11 07:56:16;;;;;;;9.95;8.95;;;25.20;99.90;;;;;;5033875;28;20441;-57
2023/07/11 07:58:42;;;;;;;9.52;8.73;;;25.30;99.90;;;;;;5018057;28;20046;-57
2023/07/11 08:01:10;;;;;;;12.23;9.32;;;25.40;99.90;;;;;;5014744;28;20041;-55
2023/07/11 08:03:36;;;;;;;9.02;8.18;;;25.50;99.90;;;;;;5029361;28;20061;-56
2023/07/11 08:06:02;;;;;;;10.30;8.27;;;25.60;99.90;;;;;;5028212;28;20056;-56
2023/07/11 08:08:28;;;;;;;9.55;8.73;;;25.60;99.90;;;;;;5020840;28;20022;-57
2023/07/11 08:10:54;;;;;;;9.60;8.65;;;25.70;99.90;;;;;;5038106;28;20036;-56
2023/07/11 08:13:20;;;;;;;9.65;8.82;;;25.90;99.90;;;;;;5019791;28;20026;-57
2023/07/11 08:15:45;;;;;;;10.15;8.18;;;26.00;99.90;;;;;;5030572;28;20037;-56
2023/07/11 08:18:11;;;;;;;10.20;9.20;;;26.10;99.90;;;;;;5029021;28;20041;-56
2023/07/11 08:20:37;;;;;;;9.45;8.60;;;26.20;99.90;;;;;;5020482;28;20477;-57
2023/07/11 08:23:03;;;;;;;13.90;8.65;;;26.30;99.90;;;;;;5037519;28;20100;-54
2023/07/11 08:25:29;;;;;;;9.85;8.95;;;26.40;99.90;;;;;;5017368;28;20549;-57
2023/07/11 08:27:54;;;;;;;9.15;8.38;;;26.50;99.90;;;;;;5030448;28;20351;-56
2023/07/11 08:30:20;;;;;;;10.63;8.07;;;26.70;99.90;;;;;;5021729;28;20037;-55
2023/07/11 08:32:46;;;;;;;9.15;8.50;;;26.90;99.90;;;;;;5021546;28;20120;-57
2023/07/11 08:35:12;;;;;;;9.05;7.45;;;27.00;99.90;;;;;;5036785;28;20454;-55
2023/07/11 08:37:37;;;;;;;9.80;7.95;;;27.10;99.90;;;;;;5015261;28;20041;-58
2023/07/11 08:40:04;;;;;;;8.55;7.68;;;27.20;98.80;;;;;;5033590;28;20102;-58
2023/07/11 08:42:40;;;;;;;7.63;6.75;;;27.30;94.30;;;;;;5025419;28;20033;-57
2023/07/11 08:45:30;;;;;;;7.38;6.78;;;27.40;94.20;;;;;;5025399;28;20029;-56
2023/07/11 08:47:59;;;;;;;7.25;6.65;;;27.50;92.60;;;;;;5032455;28;20049;-56
2023/07/11 08:50:28;;;;;;;7.15;6.55;;;27.60;91.60;;;;;;5016452;28;20049;-57
2023/07/11 08:53:15;;;;;;;7.38;6.78;;;27.70;89.80;;;;;;5036139;28;20110;-57
2023/07/11 08:55:50;;;;;;;7.10;6.50;;;27.80;88.10;;;;;;5037696;28;20045;-56
2023/07/11 08:58:26;;;;;;;6.68;6.10;;;27.80;85.40;;;;;;5019005;28;20123;-57
2023/07/11 09:00:52;;;;;;;6.28;5.68;;;27.90;81.90;;;;;;5033066;28;20124;-57
2023/07/11 09:03:27;;;;;;;6.85;6.30;;;27.90;81.80;;;;;;5030356;28;20049;-58
2023/07/11 09:06:10;;;;;;;7.03;6.43;;;27.80;80.50;;;;;;5024544;28;20440;-55
2023/07/11 09:08:43;;;;;;;6.53;6.00;;;27.80;80.20;;;;;;5034170;28;20038;-57
2023/07/11 09:11:13;;;;;;;10.43;6.90;;;27.90;81.30;;;;;;5019714;28;20106;-57
2023/07/11 09:14:00;;;;;;;6.80;6.30;;;27.90;81.10;;;;;;5040323;28;20109;-56
2023/07/11 09:16:33;;;;;;;7.43;6.03;;;28.10;82.60;;;;;;5020286;28;20492;-56
2023/07/11 09:19:23;;;;;;;6.45;5.93;;;28.30;81.40;;;;;;5034849;28;20543;-57
2023/07/11 09:22:07;;;;;;;6.40;5.80;;;28.50;80.50;;;;;;5026225;28;20037;-56
2023/07/11 09:24:52;;;;;;;8.23;6.00;;;28.70;78.60;;;;;;5028875;28;20026;-57
2023/07/11 09:27:35;;;;;;;5.55;5.05;;;28.90;78.40;;;;;;5026202;28;20037;-56
2023/07/11 09:30:27;;;;;;;7.25;5.57;;;29.10;76.20;;;;;;5025507;28;20025;-57
2023/07/11 09:32:56;;;;;;;6.45;5.20;;;29.00;74.20;;;;;;5035122;28;20065;-57
2023/07/11 09:35:28;;;;;;;6.18;4.90;;;29.20;74.20;;;;;;5018529;28;20760;-55
2023/07/11 09:38:01;;;;;;;6.03;5.53;;;29.40;73.60;;;;;;5039775;28;20355;-56
2023/07/11 09:40:43;;;;;;;5.13;4.72;;;29.60;72.40;;;;;;5016762;28;20025;-57
2023/07/11 09:43:09;;;;;;;9.88;6.05;;;29.70;72.10;;;;;;5031458;28;20441;-57
2023/07/11 09:45:41;;;;;;;6.43;5.88;;;30.00;70.80;;;;;;5028922;28;20084;-56
2023/07/11 09:48:27;;;;;;;5.68;5.28;;;30.10;69.30;;;;;;5027090;28;20079;-56
2023/07/11 09:51:14;;;;;;;6.07;5.50;;;30.20;69.30;;;;;;5032504;28;20037;-56
2023/07/11 09:53:44;;;;;;;5.97;5.57;;;30.40;69.40;;;;;;5020885;28;20105;-57
2023/07/11 09:56:13;;;;;;;8.05;6.00;;;30.50;68.00;;;;;;5038158;28;20036;-57
2023/07/11 09:58:39;;;;;;;5.85;5.35;;;30.60;66.30;;;;;;5015775;28;20034;-57
2023/07/11 10:01:14;;;;;;;5.93;5.43;;;30.60;66.30;;;;;;5033898;28;20037;-57
2023/07/11 10:03:47;;;;;;;5.40;4.95;;;30.70;66.70;;;;;;5026874;28;20489;-56
2023/07/11 10:06:29;;;;;;;5.75;5.20;;;31.00;65.80;;;;;;5027079;28;20017;-58
2023/07/11 10:08:55;;;;;;;5.85;5.45;;;31.20;64.70;;;;;;5032810;28;20025;-57
2023/07/11 10:11:21;;;;;;;5.82;5.43;;;31.30;63.60;;;;;;5017767;28;20025;-58
2023/07/11 10:13:47;;;;;;;6.68;5.80;;;31.60;62.60;;;;;;5036718;28;20163;-59
2023/07/11 10:16:20;;;;;;;5.60;5.10;;;31.70;62.80;;;;;;5019655;28;20625;-57
2023/07/11 10:18:46;;;;;;;5.47;4.97;;;31.50;61.20;;;;;;5030365;28;20995;-57
2023/07/11 10:21:16;;;;;;;6.20;5.60;;;31.70;62.20;;;;;;5030220;28;20034;-57
2023/07/11 10:23:43;;;;;;;;;;;31.90;62.00;;;;;;5020575;28;20029;-58
2023/07/11 10:26:17;;;;;;;6.35;5.43;;;32.10;61.20;;;;;;5039476;28;19907;-58
2023/07/11 10:28:47;;;;;;;5.97;5.45;;;32.20;59.40;;;;;;5039760;28;20033;-57
2023/07/11 10:31:20;;;;;;;5.78;5.15;;;32.30;59.20;;;;;;5021350;28;20037;-57
2023/07/11 10:33:51;;;;;;;5.97;5.38;;;32.50;60.30;;;;;;5030448;28;20108;-58
2023/07/11 10:36:24;;;;;;;5.55;5.15;;;32.60;58.70;;;;;;5030359;28;20054;-58
2023/07/11 10:38:57;;;;;;;7.03;5.50;;;32.60;58.90;;;;;;5021833;28;20026;-59
2023/07/11 10:41:33;;;;;;;5.45;5.05;;;32.60;58.20;;;;;;5034439;28;20037;-58
2023/07/11 10:44:04;;;;;;;7.80;5.88;;;32.60;57.90;;;;;;5018698;28;20059;-58
2023/07/11 10:46:43;;;;;;;5.55;5.05;;;32.70;57.60;;;;;;5034220;28;20029;-58
2023/07/11 10:49:28;;;;;;;10.43;5.60;;;32.80;57.30;;;;;;5021363;28;20354;-59
2023/07/11 10:52:01;;;;;;;5.95;5.47;;;32.90;58.00;;;;;;5031149;28;20060;-58
2023/07/11 10:54:39;;;;;;;6.32;5.68;;;32.90;56.20;;;;;;5030412;28;20109;-57
2023/07/11 10:57:15;;;;;;;5.97;5.35;;;32.80;58.10;;;;;;5024938;28;20116;-58
2023/07/11 10:59:41;;;;;;;5.70;5.20;;;32.90;55.70;;;;;;5033766;28;20112;-57
2023/07/11 11:02:18;;;;;;;5.55;5.03;;;32.80;56.40;;;;;;5017734;28;20164;-58
2023/07/11 11:04:52;;;;;;;5.85;5.25;;;32.50;55.30;;;;;;5016650;28;20055;-58
2023/07/11 11:07:22;;;;;;;6.53;5.15;;;32.10;56.10;;;;;;5033951;28;20206;-57
2023/07/11 11:09:47;;;;;;;6.10;5.60;;;31.90;58.00;;;;;;5024463;28;20137;-57
2023/07/11 11:12:41;;;;;;;5.60;5.10;;;31.80;57.30;;;;;;5026222;28;20096;-58
2023/07/11 11:15:13;;;;;;;5.97;5.50;;;31.90;56.20;;;;;;5026839;28;20032;-58
2023/07/11 11:17:57;;;;;;;5.72;5.22;;;32.10;56.60;;;;;;5020164;28;20041;-57
2023/07/11 11:20:46;;;;;;;5.13;4.70;;;32.40;55.40;;;;;;5034570;28;20017;-57
2023/07/11 11:23:31;;;;;;;5.60;5.10;;;32.50;55.10;;;;;;5017273;28;20052;-57
2023/07/11 11:26:10;;;;;;;6.53;5.32;;;32.40;56.30;;;;;;5017626;28;20818;-56
2023/07/11 11:28:58;;;;;;;7.55;5.28;;;32.30;56.10;;;;;;5037380;28;20052;-58
2023/07/11 11:31:27;;;;;;;6.00;5.50;;;32.30;56.30;;;;;;5018936;28;20037;-57
2023/07/11 11:34:11;;;;;;;5.72;5.13;;;32.40;55.70;;;;;;5025770;28;20025;-58
2023/07/11 11:37:09;;;;;;;6.68;6.07;;;32.60;55.20;;;;;;5024951;28;20050;-57
2023/07/11 11:39:57;;;;;;;6.65;5.95;;;32.70;54.70;;;;;;4997146;28;20467;-58
2023/07/11 11:42:27;;;;;;;6.97;6.35;;;32.80;51.80;;;;;;5033374;28;20028;-58
2023/07/11 11:44:55;;;;;;;7.75;6.65;;;32.90;50.80;;;;;;5031670;28;20498;-58
2023/07/11 11:47:23;;;;;;;7.15;6.50;;;33.00;50.80;;;;;;5014102;28;20025;-58
2023/07/11 11:49:49;;;;;;;7.78;7.05;;;32.90;51.60;;;;;;5036137;28;20465;-58
2023/07/11 11:52:15;;;;;;;6.95;6.35;;;33.00;51.70;;;;;;5018856;28;20029;-58
2023/07/11 11:54:46;;;;;;;7.68;6.07;;;32.90;51.20;;;;;;5029319;28;20030;-58
2023/07/11 11:57:24;;;;;;;6.45;5.78;;;32.90;53.60;;;;;;5028516;28;20105;-58
2023/07/11 11:59:51;;;;;;;6.68;6.00;;;33.10;52.40;;;;;;5020532;28;20552;-58
2023/07/11 12:02:25;;;;;;;6.20;5.60;;;33.20;53.20;;;;;;5038433;28;20037;-58
2023/07/11 12:05:09;;;;;;;6.43;5.82;;;33.30;52.80;;;;;;5017299;28;20021;-58
2023/07/11 12:07:39;;;;;;;7.43;6.13;;;33.50;52.60;;;;;;5039439;28;20033;-56
2023/07/11 12:10:18;;;;;;;8.77;6.38;;;33.70;52.20;;;;;;5020392;28;20030;-57
2023/07/11 12:12:44;;;;;;;7.07;6.47;;;33.90;51.10;;;;;;5024955;28;20101;-58
2023/07/11 12:15:12;;;;;;;11.35;5.95;;;34.10;50.10;;;;;;5030276;28;20124;-57
2023/07/11 12:17:41;;;;;;;7.05;6.47;;;34.10;50.70;;;;;;5018381;28;20128;-56
2023/07/11 12:20:06;;;;;;;6.75;6.18;;;34.20;49.80;;;;;;5038693;28;20029;-57
2023/07/11 12:22:38;;;;;;;6.63;6.03;;;34.20;50.80;;;;;;5018097;28;20044;-58
2023/07/11 12:25:06;;;;;;;7.90;5.72;;;34.30;49.20;;;;;;5031538;28;20033;-58
2023/07/11 12:27:32;;;;;;;7.28;6.63;;;34.30;49.20;;;;;;5023618;28;20037;-57
2023/07/11 12:30:13;;;;;;;7.30;6.70;;;34.30;49.70;;;;;;5019332;28;20469;-57
2023/07/11 12:32:45;;;;;;;7.30;6.70;;;34.30;47.20;;;;;;5033926;28;20029;-58
2023/07/11 12:35:13;;;;;;;7.13;6.53;;;34.00;48.20;;;;;;5017694;28;20021;-55
2023/07/11 12:37:48;;;;;;;7.47;6.88;;;34.00;48.20;;;;;;5040420;28;20029;-56
2023/07/11 12:40:20;;;;;;;6.57;5.97;;;33.80;49.40;;;;;;5022051;28;20386;-57
2023/07/11 12:42:51;;;;;;;6.40;5.85;;;33.80;49.60;;;;;;5032946;28;20037;-57
2023/07/11 12:45:25;;;;;;;7.95;6.30;;;33.70;50.60;;;;;;5030804;28;20899;-58
2023/07/11 12:48:04;;;;;;;5.93;5.32;;;33.70;50.10;;;;;;5029182;28;20025;-57
2023/07/11 12:50:40;;;;;;;6.95;5.97;;;33.70;49.80;;;;;;5038083;28;20524;-58